Terminal Aerodrome Forecast
Issued by NWS

Home | Current Version | Previous Version | Text Only | Print | Product List | Glossary On
Versions: 1 2 3 4 5 6 7 8 9 10 11 12 13 14 15 16 17 18 19 20 21 22 23 24 25 26 27 28
000
FTUS45 KLKN 251935 AAA
TAFTPH
TAF AMD
KTPH 251935Z 2520/2618 34018G28KT P6SM BKN050
      TEMPO 2520/2524 35035G50KT -SHRA SCT050 BKN070
     FM260000 33025G35KT P6SM -SHRA OVC040
      TEMPO 2600/2602 35030G44KT SCT050 OVC100
     FM260200 35020G30KT P6SM SCT100 BKN200=

USA.gov is the U.S. government's official web portal to all federal, state and local government web resources and services.